Bald Eagle
, Park City
Last Weather Update:11/25/2011 8:00:00 AM
Date
ETo
ETc
Rain
Irrigation
Req
Temp
Max
Temp
Min
Temp
Avg
Avg RH
Avg Wind
Avg Solar
inches
inches
incehs
inches
F
F
F
%
%
watts/m2
10/1/2011 0.16" 0.08" 0.00" 0.08" 68.4° 52.5° 58.6° 50.4% 5.0 MPH 215.4w/m2
10/2/2011 0.14" 0.06" 0.00" 0.06" 65.0° 49.0° 56.1° 49.7% 4.2 MPH 211.0w/m2
10/3/2011 0.12" 0.06" 0.07" 0.00" 66.2° 45.5° 54.7° 94.5% 4.2 MPH 196.3w/m2
10/4/2011 0.11" 0.05" 0.22" -0.13" 60.1° 42.0° 49.1° 90.4% 4.9 MPH 215.0w/m2
10/5/2011 0.02" 0.01" 1.61" -1.28" 44.1° 32.3° 39.2° 98.4% 6.5 MPH 56.7w/m2
10/6/2011 0.01" 0.00" 0.02" -0.01" 32.9° 24.1° 27.2° 88.4% 0.1 MPH 16.1w/m2
10/7/2011 0.01" 0.00" 0.03" -0.02" 31.0° 23.0° 27.0° 100.0% 0.2 MPH 14.9w/m2
10/8/2011 0.02" 0.01" 0.30" -0.23" 36.3° 27.0° 30.4° 95.9% 4.4 MPH 47.4w/m2
10/9/2011 0.07" 0.02" 0.14" -0.09" 43.8° 27.0° 34.1° 73.2% 2.1 MPH 161.0w/m2
10/10/2011 0.07" 0.02" 0.04" -0.01" 47.7° 33.1° 37.6° 96.6% 4.2 MPH 148.0w/m2
10/11/2011 0.06" 0.02" 0.04" -0.01" 49.2° 34.6° 40.9° 87.0% 3.2 MPH 136.0w/m2
10/12/2011 0.10" 0.03" 0.00" 0.03" 53.3° 34.8° 42.3° 38.2% 4.5 MPH 198.9w/m2
10/13/2011 0.11" 0.03" 0.00" 0.03" 59.8° 39.5° 48.7° 41.5% 2.7 MPH 197.3w/m2
10/14/2011 0.11" 0.03" 0.00" 0.03" 60.7° 45.7° 52.1° 39.2% 2.5 MPH 193.7w/m2
10/15/2011 0.13" 0.03" 0.00" 0.03" 67.0° 50.5° 56.6° 28.4% 4.6 MPH 189.1w/m2
10/16/2011 0.10" 0.03" 0.09" -0.05" 61.2° 38.1° 52.4° 89.8% 4.3 MPH 159.3w/m2
10/17/2011 0.08" 0.02" 0.18" -0.13" 46.9° 32.2° 38.0° 38.4% 6.4 MPH 189.4w/m2
10/18/2011 0.09" 0.02" 0.00" 0.02" 51.9° 32.6° 40.2° 38.8% 2.9 MPH 191.9w/m2
10/19/2011 0.11" 0.02" 0.00" 0.02" 57.7° 40.3° 47.1° 47.8% 3.1 MPH 188.8w/m2
10/20/2011 0.09" 0.02" 0.00" 0.02" 56.0° 39.2° 45.6° 42.9% 2.4 MPH 180.6w/m2
10/21/2011 0.10" 0.02" 0.00" 0.02" 57.3° 41.8° 47.2° 48.6% 3.4 MPH 180.9w/m2
10/22/2011 0.09" 0.01" 0.00" 0.01" 54.3° 38.0° 44.9° 54.3% 3.3 MPH 174.2w/m2
10/23/2011 0.09" 0.01" 0.00" 0.01" 58.4° 38.1° 47.5° 21.0% 2.6 MPH 177.6w/m2
10/24/2011 0.12" 0.01" 0.00" 0.01" 57.7° 44.6° 50.3° 40.6% 5.6 MPH 166.4w/m2
10/25/2011 0.03" 0.00" 0.00" 0.00" 45.8° 25.2° 35.6° 71.2% 4.1 MPH 74.9w/m2
10/26/2011 0.03" 0.00" 0.00" 0.00" 29.3° 20.6° 23.4° 59.7% 5.6 MPH 74.1w/m2
10/27/2011 0.07" 0.00" 0.00" 0.00" 39.3° 20.0° 28.3° 31.4% 2.7 MPH 167.9w/m2
10/28/2011 0.06" 0.00" 0.00" 0.00" 45.8° 24.7° 33.8° 14.9% 1.8 MPH 147.1w/m2
10/29/2011 0.06" 0.00" 0.00" 0.00" 44.7° 34.0° 38.8° 65.6% 4.4 MPH 113.4w/m2
10/30/2011 0.07" 0.00" 0.00" 0.00" 51.9° 31.2° 40.1° 49.3% 2.2 MPH 161.0w/m2
10/31/2011 0.08" 0.00" 0.00" 0.00" 55.4° 38.5° 44.4° 49.4% 2.8 MPH 152.0w/m2
Totals: 2.51" 0.63" 2.74" -1.56" 68.4° 20.0° 42.3° 59.2% 3.6 MPH 151.5w/m2